Andersonville, Virginia
Current Conditions -  °F | °C
As of 5:15 AM on Thursday 18 Dec 2014 (Local Time) from KFVX Reporting Station
Clear Clear  
Wind Chill: 32°   Ceiling: Unl
Heat Index: 32°   Visibility: 10mi
Dew Point: 26°   Wind: 0mph
Humidity: 78%   Direction: NA
Pressure: 30.12"   Gusts: NA
Location:  37.47°N, 78.57°W
Report Text: KFVX 181015Z AUTO 00000KT 10SM CLR 00/M03 A3012 RMK AO2 T00001034
Loading
Personal Weather Stations






























Interactive Weather Map New forecast layout! Learn more

10-Day Weather Forecast

Advertisements
Track Severe Weather on mobile